FIN814 LGAV-EFHK
Flight info
| Callsign | FIN814 |
|---|---|
| Flight time | N/A |
| Altitude | 31000 |
| Route | KRO UT162 KOROS/N0467F400 DCT ATFIR DCT RESLA DCT EKNAB DCT OLMIP DCT BAVMA DCT ADUKU DCT ORA DCT NARKA DCT KSC DCT LOGDA/N0462F390 M866 GERVI M857 SUWGI DCT BOKSU DCT ROLAV DCT DOLAT/N0471F400 DCT ARSAM DCT INTOR |
| Aircraft | A333/H-SDE3GHIJ2J3J5M1RVWXY/LB2D1 |
Departure
| Time | N/A |
|---|---|
| Airport | Athens Eleftherios Venizelos International Airport (LGAV) |
Arrival
| Time | 2026-05-07 15:22 |
|---|---|
| Airport | Helsinki Vantaa Airport (EFHK) |
| Time | Latitude | Longitude | Altitude | Speed | Heading |
|---|---|---|---|---|---|
| 2026-05-07 14:37 | 56.14156 | 23.96595 | 31978 ft | 531 kts | 8° |
| 2026-05-07 14:38 | 56.21368 | 23.99599 | 31973 ft | 531 kts | 8° |
| 2026-05-07 14:38 | 56.28537 | 24.02598 | 31966 ft | 533 kts | 8° |
| 2026-05-07 14:39 | 56.35658 | 24.06213 | 31976 ft | 534 kts | 12° |
| 2026-05-07 14:39 | 56.42798 | 24.10027 | 31974 ft | 534 kts | 12° |
| 2026-05-07 14:40 | 56.49863 | 24.13808 | 31980 ft | 532 kts | 12° |
| 2026-05-07 14:40 | 56.56943 | 24.17608 | 31989 ft | 531 kts | 12° |
| 2026-05-07 14:41 | 56.64042 | 24.21433 | 31990 ft | 531 kts | 12° |
| 2026-05-07 14:41 | 56.71063 | 24.25232 | 31998 ft | 531 kts | 12° |
| 2026-05-07 14:42 | 56.78184 | 24.29102 | 31999 ft | 531 kts | 12° |
| 2026-05-07 14:42 | 56.85214 | 24.32936 | 32005 ft | 529 kts | 12° |
| 2026-05-07 14:43 | 56.92215 | 24.36768 | 32006 ft | 530 kts | 12° |
| 2026-05-07 14:43 | 56.99296 | 24.40660 | 32003 ft | 531 kts | 12° |
| 2026-05-07 14:44 | 57.06325 | 24.44538 | 32006 ft | 532 kts | 12° |
| 2026-05-07 14:44 | 57.13418 | 24.48468 | 31996 ft | 531 kts | 12° |
| 2026-05-07 14:45 | 57.20525 | 24.52421 | 32001 ft | 531 kts | 12° |
| 2026-05-07 14:45 | 57.27566 | 24.56353 | 31999 ft | 530 kts | 12° |
| 2026-05-07 14:46 | 57.34601 | 24.60298 | 32000 ft | 530 kts | 11° |
| 2026-05-07 14:46 | 57.41653 | 24.64269 | 31997 ft | 529 kts | 11° |
| 2026-05-07 14:47 | 57.48658 | 24.68227 | 31986 ft | 530 kts | 12° |
| 2026-05-07 14:47 | 57.55667 | 24.72206 | 31985 ft | 530 kts | 12° |
| 2026-05-07 14:48 | 57.62748 | 24.76240 | 31980 ft | 531 kts | 12° |
| 2026-05-07 14:48 | 57.69746 | 24.80244 | 31981 ft | 530 kts | 12° |
| 2026-05-07 14:49 | 57.76814 | 24.84304 | 31992 ft | 530 kts | 12° |
| 2026-05-07 14:49 | 57.83848 | 24.88362 | 31993 ft | 529 kts | 12° |
| 2026-05-07 14:50 | 57.90812 | 24.92395 | 31989 ft | 529 kts | 12° |
| 2026-05-07 14:50 | 57.97869 | 24.96497 | 31989 ft | 529 kts | 12° |
| 2026-05-07 14:51 | 58.04930 | 24.99348 | 31997 ft | 521 kts | 1° |
| 2026-05-07 14:51 | 58.12131 | 25.01131 | 31987 ft | 521 kts | 2° |
| 2026-05-07 14:52 | 58.19289 | 25.02926 | 31987 ft | 522 kts | 2° |
| 2026-05-07 14:52 | 58.26439 | 25.04732 | 31990 ft | 520 kts | 2° |
| 2026-05-07 14:53 | 58.33612 | 25.06550 | 31995 ft | 520 kts | 2° |
| 2026-05-07 14:53 | 58.40751 | 25.08365 | 31989 ft | 520 kts | 2° |
| 2026-05-07 14:54 | 58.47904 | 25.10193 | 31993 ft | 520 kts | 2° |
| 2026-05-07 14:54 | 58.55083 | 25.12036 | 31987 ft | 520 kts | 2° |
| 2026-05-07 14:55 | 58.62214 | 25.13872 | 31995 ft | 520 kts | 1° |
| 2026-05-07 14:55 | 58.69399 | 25.15729 | 31988 ft | 520 kts | 1° |
| 2026-05-07 14:56 | 58.76520 | 25.17577 | 31981 ft | 521 kts | 2° |
| 2026-05-07 14:56 | 58.83624 | 25.19433 | 31134 ft | 511 kts | 1° |
| 2026-05-07 14:57 | 58.87151 | 25.20353 | 30148 ft | 508 kts | 2° |
| 2026-05-07 14:57 | 58.90563 | 25.21249 | 29502 ft | 499 kts | 1° |
| 2026-05-07 14:57 | 58.93977 | 25.22148 | 28768 ft | 493 kts | 1° |
| 2026-05-07 14:57 | 58.97361 | 25.23038 | 28029 ft | 488 kts | 1° |
| 2026-05-07 14:58 | 59.00708 | 25.23919 | 27266 ft | 484 kts | 1° |
| 2026-05-07 14:58 | 59.03995 | 25.24788 | 26553 ft | 479 kts | 1° |
| 2026-05-07 14:58 | 59.07254 | 25.25650 | 25897 ft | 473 kts | 1° |
| 2026-05-07 14:58 | 59.09452 | 25.26234 | 25455 ft | 469 kts | 1° |
| 2026-05-07 14:59 | 59.12653 | 25.27083 | 24776 ft | 464 kts | 1° |
| 2026-05-07 14:59 | 59.15842 | 25.27931 | 24098 ft | 459 kts | 1° |
| 2026-05-07 14:59 | 59.18970 | 25.28763 | 23423 ft | 454 kts | 1° |
| 2026-05-07 14:59 | 59.22064 | 25.29589 | 22826 ft | 448 kts | 1° |
| 2026-05-07 15:00 | 59.25097 | 25.30400 | 22224 ft | 442 kts | 2° |
| 2026-05-07 15:00 | 59.28138 | 25.31216 | 21649 ft | 436 kts | 2° |
| 2026-05-07 15:00 | 59.31092 | 25.32007 | 21034 ft | 431 kts | 2° |
| 2026-05-07 15:00 | 59.34026 | 25.32797 | 20473 ft | 425 kts | 2° |
| 2026-05-07 15:01 | 59.36938 | 25.33582 | 19865 ft | 420 kts | 2° |
| 2026-05-07 15:01 | 59.39826 | 25.34361 | 19257 ft | 415 kts | 2° |
| 2026-05-07 15:01 | 59.42627 | 25.35117 | 18686 ft | 410 kts | 2° |
| 2026-05-07 15:01 | 59.45431 | 25.35325 | 18069 ft | 396 kts | 348° |
| 2026-05-07 15:02 | 59.48060 | 25.34249 | 17476 ft | 388 kts | 342° |
| 2026-05-07 15:02 | 59.50666 | 25.33081 | 16882 ft | 385 kts | 342° |
| 2026-05-07 15:02 | 59.53258 | 25.31924 | 16293 ft | 381 kts | 342° |
| 2026-05-07 15:02 | 59.55832 | 25.30776 | 15673 ft | 378 kts | 343° |
| 2026-05-07 15:03 | 59.58360 | 25.29647 | 15106 ft | 374 kts | 343° |
| 2026-05-07 15:03 | 59.60886 | 25.28518 | 14528 ft | 370 kts | 343° |
| 2026-05-07 15:03 | 59.63345 | 25.27418 | 13958 ft | 366 kts | 343° |
| 2026-05-07 15:03 | 59.65836 | 25.26301 | 13374 ft | 363 kts | 343° |
| 2026-05-07 15:04 | 59.68275 | 25.25207 | 12837 ft | 360 kts | 344° |
| 2026-05-07 15:04 | 59.70684 | 25.24124 | 12256 ft | 357 kts | 344° |
| 2026-05-07 15:04 | 59.73091 | 25.23040 | 12003 ft | 354 kts | 344° |
| 2026-05-07 15:04 | 59.75429 | 25.21994 | 12102 ft | 333 kts | 344° |
| 2026-05-07 15:05 | 59.77616 | 25.21008 | 12034 ft | 318 kts | 344° |
| 2026-05-07 15:05 | 59.79731 | 25.20054 | 12032 ft | 302 kts | 344° |
| 2026-05-07 15:05 | 59.81707 | 25.19200 | 12038 ft | 291 kts | 348° |
| 2026-05-07 15:05 | 59.83730 | 25.19500 | 12061 ft | 295 kts | 14° |
| 2026-05-07 15:06 | 59.85610 | 25.21048 | 11766 ft | 295 kts | 20° |
| 2026-05-07 15:06 | 59.87489 | 25.22661 | 11372 ft | 295 kts | 20° |
| 2026-05-07 15:06 | 59.89355 | 25.24256 | 11063 ft | 292 kts | 20° |
| 2026-05-07 15:06 | 59.91219 | 25.25847 | 10757 ft | 290 kts | 20° |
| 2026-05-07 15:07 | 59.93044 | 25.27403 | 10458 ft | 288 kts | 20° |
| 2026-05-07 15:07 | 59.94880 | 25.28970 | 10144 ft | 286 kts | 20° |
| 2026-05-07 15:07 | 59.96700 | 25.30522 | 9839 ft | 283 kts | 19° |
| 2026-05-07 15:07 | 59.98595 | 25.31221 | 9502 ft | 277 kts | 355° |
| 2026-05-07 15:08 | 60.00455 | 25.30467 | 9197 ft | 272 kts | 344° |
| 2026-05-07 15:08 | 60.02279 | 25.29562 | 8862 ft | 271 kts | 345° |
| 2026-05-07 15:08 | 60.04089 | 25.28654 | 8578 ft | 269 kts | 345° |
| 2026-05-07 15:08 | 60.05894 | 25.27745 | 8263 ft | 266 kts | 345° |
| 2026-05-07 15:09 | 60.07668 | 25.26851 | 7930 ft | 264 kts | 345° |
| 2026-05-07 15:09 | 60.09429 | 25.25962 | 7639 ft | 262 kts | 346° |
| 2026-05-07 15:09 | 60.11185 | 25.25075 | 7345 ft | 261 kts | 346° |
| 2026-05-07 15:09 | 60.12935 | 25.24191 | 7002 ft | 260 kts | 346° |
| 2026-05-07 15:10 | 60.14672 | 25.23313 | 6728 ft | 258 kts | 346° |
| 2026-05-07 15:10 | 60.16410 | 25.22433 | 6418 ft | 256 kts | 346° |
| 2026-05-07 15:10 | 60.18129 | 25.21565 | 6042 ft | 257 kts | 346° |
| 2026-05-07 15:10 | 60.19868 | 25.20684 | 5693 ft | 257 kts | 346° |
| 2026-05-07 15:11 | 60.21590 | 25.19808 | 5394 ft | 256 kts | 346° |
| 2026-05-07 15:11 | 60.23298 | 25.18941 | 5094 ft | 256 kts | 346° |
| 2026-05-07 15:11 | 60.24991 | 25.18079 | 4795 ft | 256 kts | 346° |
| 2026-05-07 15:11 | 60.26734 | 25.17190 | 4496 ft | 255 kts | 346° |
| 2026-05-07 15:12 | 60.28434 | 25.16324 | 4190 ft | 255 kts | 346° |
| 2026-05-07 15:12 | 60.30154 | 25.15445 | 3902 ft | 254 kts | 346° |
| 2026-05-07 15:12 | 60.31852 | 25.14578 | 3596 ft | 253 kts | 346° |
| 2026-05-07 15:12 | 60.33555 | 25.13707 | 3317 ft | 253 kts | 346° |
| 2026-05-07 15:13 | 60.35250 | 25.12826 | 3031 ft | 252 kts | 343° |
| 2026-05-07 15:13 | 60.36841 | 25.11371 | 2700 ft | 253 kts | 333° |
| 2026-05-07 15:13 | 60.38423 | 25.09740 | 2351 ft | 255 kts | 334° |
| 2026-05-07 15:13 | 60.39993 | 25.08132 | 2038 ft | 256 kts | 334° |
| 2026-05-07 15:14 | 60.41563 | 25.06523 | 1982 ft | 247 kts | 334° |
| 2026-05-07 15:14 | 60.43055 | 25.04994 | 1978 ft | 235 kts | 334° |
| 2026-05-07 15:14 | 60.44481 | 25.03531 | 1971 ft | 226 kts | 334° |
| 2026-05-07 15:14 | 60.45867 | 25.02108 | 1981 ft | 222 kts | 334° |
| 2026-05-07 15:15 | 60.47232 | 25.00705 | 1989 ft | 222 kts | 334° |
| 2026-05-07 15:15 | 60.48606 | 24.99291 | 1980 ft | 220 kts | 334° |
| 2026-05-07 15:15 | 60.50021 | 24.98218 | 1971 ft | 219 kts | 349° |
| 2026-05-07 15:15 | 60.51379 | 24.97037 | 1965 ft | 208 kts | 320° |
| 2026-05-07 15:16 | 60.52123 | 24.94707 | 1953 ft | 194 kts | 283° |
| 2026-05-07 15:16 | 60.51981 | 24.92150 | 1959 ft | 179 kts | 240° |
| 2026-05-07 15:16 | 60.51073 | 24.90557 | 2028 ft | 170 kts | 199° |
| 2026-05-07 15:16 | 60.50023 | 24.89607 | 2237 ft | 162 kts | 211° |
| 2026-05-07 15:17 | 60.49089 | 24.88452 | 1944 ft | 164 kts | 215° |
| 2026-05-07 15:17 | 60.48160 | 24.87163 | 1997 ft | 159 kts | 216° |
| 2026-05-07 15:17 | 60.47270 | 24.85872 | 1956 ft | 156 kts | 216° |
| 2026-05-07 15:17 | 60.46419 | 24.84608 | 2038 ft | 150 kts | 217° |
| 2026-05-07 15:18 | 60.45452 | 24.83869 | 1918 ft | 150 kts | 177° |
| 2026-05-07 15:18 | 60.44492 | 24.84498 | 2096 ft | 147 kts | 148° |
| 2026-05-07 15:18 | 60.43589 | 24.85530 | 2137 ft | 151 kts | 149° |
| 2026-05-07 15:18 | 60.42682 | 24.86500 | 2065 ft | 150 kts | 150° |
| 2026-05-07 15:19 | 60.41748 | 24.87480 | 1955 ft | 149 kts | 151° |
| 2026-05-07 15:19 | 60.40832 | 24.88431 | 1817 ft | 147 kts | 151° |
| 2026-05-07 15:19 | 60.39930 | 24.89364 | 1663 ft | 145 kts | 151° |
| 2026-05-07 15:19 | 60.39037 | 24.90284 | 1495 ft | 144 kts | 151° |
| 2026-05-07 15:20 | 60.38147 | 24.91204 | 1348 ft | 142 kts | 152° |
| 2026-05-07 15:20 | 60.37265 | 24.92100 | 1206 ft | 140 kts | 153° |
| 2026-05-07 15:20 | 60.36403 | 24.92968 | 1013 ft | 139 kts | 153° |
| 2026-05-07 15:20 | 60.35542 | 24.93839 | 791 ft | 139 kts | 152° |
| 2026-05-07 15:21 | 60.34701 | 24.94724 | 596 ft | 136 kts | 152° |
| 2026-05-07 15:21 | 60.33855 | 24.95587 | 396 ft | 133 kts | 152° |
| 2026-05-07 15:21 | 60.33038 | 24.96445 | 222 ft | 133 kts | 153° |
| 2026-05-07 15:21 | 60.32286 | 24.97211 | 176 ft | 100 kts | 153° |
| 2026-05-07 15:22 | 60.31843 | 24.97675 | 190 ft | 45 kts | 153° |
| 2026-05-07 15:22 | 60.31678 | 24.97631 | 192 ft | 5 kts | 237° |
| 2026-05-07 15:22 | 60.31677 | 24.97629 | 191 ft | 0 kts | 237° |
| 2026-05-07 15:23 | 60.31677 | 24.97628 | 191 ft | 0 kts | 237° |
| 2026-05-07 15:23 | 60.31673 | 24.97555 | 193 ft | 7 kts | 303° |
| 2026-05-07 15:24 | 60.31750 | 24.97427 | 194 ft | 17 kts | 329° |
| 2026-05-07 15:24 | 60.31862 | 24.97303 | 193 ft | 19 kts | 332° |
| 2026-05-07 15:24 | 60.31997 | 24.97166 | 188 ft | 24 kts | 333° |
| 2026-05-07 15:24 | 60.32146 | 24.97011 | 182 ft | 23 kts | 332° |
| 2026-05-07 15:25 | 60.32285 | 24.96858 | 181 ft | 18 kts | 311° |
| 2026-05-07 15:25 | 60.32241 | 24.96648 | 184 ft | 17 kts | 227° |
| 2026-05-07 15:25 | 60.32165 | 24.96485 | 188 ft | 15 kts | 227° |
| 2026-05-07 15:25 | 60.32090 | 24.96315 | 190 ft | 21 kts | 228° |
| 2026-05-07 15:26 | 60.31984 | 24.96082 | 187 ft | 24 kts | 229° |
| 2026-05-07 15:26 | 60.31863 | 24.95814 | 181 ft | 25 kts | 227° |
| 2026-05-07 15:26 | 60.31757 | 24.95580 | 181 ft | 20 kts | 225° |
| 2026-05-07 15:26 | 60.31654 | 24.95630 | 181 ft | 17 kts | 137° |
| 2026-05-07 15:27 | 60.31562 | 24.95602 | 185 ft | 12 kts | 228° |
| 2026-05-07 15:27 | 60.31506 | 24.95546 | 187 ft | 8 kts | 149° |
| 2026-05-07 15:27 | 60.31462 | 24.95610 | 188 ft | 6 kts | 140° |
| 2026-05-07 15:27 | 60.31458 | 24.95618 | 188 ft | 0 kts | 139° |